createdAt,value
2017-11-24T00:01:27.608Z,10.90
2017-11-24T00:03:53.872Z,10.80
2017-11-24T00:06:20.147Z,10.70
2017-11-24T00:08:46.464Z,10.60
2017-11-24T00:11:12.808Z,10.50
2017-11-24T00:13:39.035Z,10.40
2017-11-24T00:16:05.421Z,10.20
2017-11-24T00:18:31.884Z,10.30
2017-11-24T00:20:58.137Z,10.40
2017-11-24T00:23:24.397Z,10.40
2017-11-24T00:25:51.415Z,10.50
2017-11-24T00:28:17.752Z,10.50
2017-11-24T00:30:44.595Z,10.60
2017-11-24T00:33:11.612Z,10.50
2017-11-24T00:35:39.479Z,10.50
2017-11-24T00:38:05.804Z,10.50
2017-11-24T00:40:32.033Z,10.60
2017-11-24T00:42:58.303Z,10.60
2017-11-24T00:45:25.312Z,10.50
2017-11-24T00:47:51.706Z,10.50
2017-11-24T00:50:17.933Z,10.50
2017-11-24T00:52:44.183Z,10.50
2017-11-24T00:55:10.994Z,10.60
2017-11-24T00:57:38.130Z,10.70
2017-11-24T01:00:04.448Z,10.70
2017-11-24T01:02:31.495Z,10.70
2017-11-24T01:04:58.821Z,10.70
2017-11-24T01:07:25.086Z,10.70
2017-11-24T01:09:52.169Z,10.70
2017-11-24T01:12:18.496Z,10.70
2017-11-24T01:14:44.799Z,10.70
2017-11-24T01:17:11.099Z,10.70
2017-11-24T01:19:38.160Z,10.70
2017-11-24T01:22:05.203Z,10.80
2017-11-24T01:24:32.976Z,10.80
2017-11-24T01:26:59.230Z,10.80
2017-11-24T01:29:25.520Z,11.00
2017-11-24T01:31:52.604Z,11.10
2017-11-24T01:34:18.939Z,11.10
2017-11-24T01:36:45.260Z,11.10
2017-11-24T01:39:11.527Z,11.00
2017-11-24T01:41:37.814Z,11.00
2017-11-24T01:44:04.933Z,10.90
2017-11-24T01:46:32.039Z,10.80
2017-11-24T01:48:58.360Z,10.80
2017-11-24T01:51:24.623Z,10.80
2017-11-24T01:53:50.894Z,10.70
2017-11-24T01:56:20.350Z,10.70
2017-11-24T01:58:47.595Z,10.50
2017-11-24T02:01:13.984Z,10.50
2017-11-24T02:03:40.304Z,10.50
2017-11-24T02:06:06.705Z,10.40
2017-11-24T02:08:33.689Z,10.40
2017-11-24T02:11:00.740Z,10.30
2017-11-24T02:13:27.039Z,10.30
2017-11-24T02:15:54.116Z,10.20
2017-11-24T02:18:21.125Z,10.20
2017-11-24T02:20:47.391Z,10.20
2017-11-24T02:23:14.394Z,10.10
2017-11-24T02:25:40.715Z,10.10
2017-11-24T02:28:07.055Z,10.20
2017-11-24T02:30:33.360Z,10.20
2017-11-24T02:32:59.660Z,10.30
2017-11-24T02:35:25.935Z,10.20
2017-11-24T02:37:52.222Z,10.20
2017-11-24T02:40:18.498Z,10.20
2017-11-24T02:42:44.833Z,10.10
2017-11-24T02:45:11.107Z,10.20
2017-11-24T02:47:38.276Z,10.10
2017-11-24T02:50:06.798Z,10.10
2017-11-24T02:52:33.835Z,10.10
2017-11-24T02:55:00.102Z,10.10
2017-11-24T02:57:27.280Z,10.00
2017-11-24T02:59:53.576Z,10.00
2017-11-24T03:02:20.642Z,10.00
2017-11-24T03:04:46.906Z,10.00
2017-11-24T03:07:13.188Z,10.00
2017-11-24T03:09:40.265Z,9.90
2017-11-24T03:12:06.639Z,9.90
2017-11-24T03:14:33.661Z,9.90
2017-11-24T03:16:59.975Z,9.90
2017-11-24T03:19:26.455Z,9.80
2017-11-24T03:21:53.510Z,9.80
2017-11-24T03:24:20.547Z,9.80
2017-11-24T03:26:46.851Z,9.80
2017-11-24T03:29:13.127Z,9.80
2017-11-24T03:31:39.944Z,9.80
2017-11-24T03:34:06.223Z,9.80
2017-11-24T03:36:32.584Z,9.80
2017-11-24T03:38:58.935Z,9.80
2017-11-24T03:41:26.141Z,9.70
2017-11-24T03:43:52.511Z,9.70
2017-11-24T03:46:18.983Z,9.70
2017-11-24T03:48:45.565Z,9.60
2017-11-24T03:51:12.629Z,9.60
2017-11-24T03:53:38.939Z,9.60
2017-11-24T03:56:05.384Z,9.60
2017-11-24T03:58:31.775Z,9.60
2017-11-24T04:00:58.088Z,9.50
2017-11-24T04:03:24.488Z,9.50
2017-11-24T04:05:50.749Z,9.50
2017-11-24T04:08:17.311Z,9.50
2017-11-24T04:10:43.580Z,9.50
2017-11-24T04:13:09.892Z,9.50
2017-11-24T04:15:36.202Z,9.50
2017-11-24T04:18:02.592Z,9.40
2017-11-24T04:20:28.868Z,9.40
2017-11-24T04:22:55.167Z,9.40
2017-11-24T04:25:21.458Z,9.30
2017-11-24T04:27:48.688Z,9.20
2017-11-24T04:30:14.946Z,9.20
2017-11-24T04:32:42.688Z,9.10
2017-11-24T04:35:08.970Z,9.10
2017-11-24T04:37:35.319Z,9.10
2017-11-24T04:40:01.726Z,9.00
2017-11-24T04:42:28.003Z,8.90
2017-11-24T04:44:54.258Z,8.90
2017-11-24T04:47:21.287Z,8.80
2017-11-24T04:49:49.119Z,8.80
2017-11-24T04:52:15.407Z,8.70
2017-11-24T04:54:42.426Z,8.70
2017-11-24T04:57:08.691Z,8.80
2017-11-24T04:59:35.699Z,8.80
2017-11-24T05:02:01.971Z,8.80
2017-11-24T05:04:28.971Z,8.80
2017-11-24T05:06:55.297Z,8.80
2017-11-24T05:09:21.576Z,8.90
2017-11-24T05:11:48.616Z,9.00
2017-11-24T05:14:15.626Z,9.00
2017-11-24T05:16:41.938Z,9.00
2017-11-24T05:19:08.249Z,9.10
2017-11-24T05:21:34.485Z,9.10
2017-11-24T05:24:00.807Z,9.10
2017-11-24T05:26:27.048Z,9.10
2017-11-24T05:28:53.338Z,9.10
2017-11-24T05:31:20.300Z,9.00
2017-11-24T05:33:46.588Z,9.00
2017-11-24T05:36:20.464Z,9.00
2017-11-24T05:38:46.827Z,8.90
2017-11-24T05:41:13.181Z,9.00
2017-11-24T05:43:40.243Z,8.90
2017-11-24T05:46:06.507Z,8.90
2017-11-24T05:48:32.783Z,8.90
2017-11-24T05:50:59.779Z,8.90
2017-11-24T05:53:26.027Z,8.90
2017-11-24T05:55:52.260Z,8.90
2017-11-24T05:58:18.511Z,8.90
2017-11-24T06:00:44.965Z,8.90
2017-11-24T06:03:11.233Z,9.00
2017-11-24T06:05:37.506Z,9.00
2017-11-24T06:08:04.532Z,9.10
2017-11-24T06:10:32.676Z,9.10
2017-11-24T06:12:59.033Z,9.10
2017-11-24T06:15:26.047Z,9.30
2017-11-24T06:17:52.290Z,9.30
2017-11-24T06:20:18.603Z,9.30
2017-11-24T06:22:44.857Z,9.40
2017-11-24T06:25:11.128Z,9.40
2017-11-24T06:27:37.453Z,9.50
2017-11-24T06:30:03.706Z,9.50
2017-11-24T06:32:29.980Z,9.60
2017-11-24T06:34:57.025Z,9.70
2017-11-24T06:37:24.056Z,9.70
2017-11-24T06:39:50.349Z,9.70
2017-11-24T06:42:16.627Z,9.70
2017-11-24T06:44:43.046Z,9.70
2017-11-24T06:47:09.312Z,9.70
2017-11-24T06:49:36.336Z,9.70
2017-11-24T06:52:04.102Z,9.80
2017-11-24T06:54:31.246Z,9.80
2017-11-24T06:56:57.456Z,9.80
2017-11-24T06:59:23.729Z,9.80
2017-11-24T07:01:50.736Z,9.90
2017-11-24T07:04:17.047Z,9.90
2017-11-24T07:06:43.355Z,9.90
2017-11-24T07:09:09.750Z,9.90
2017-11-24T07:11:37.038Z,10.00
2017-11-24T07:14:03.744Z,10.00
2017-11-24T07:16:30.142Z,10.10
2017-11-24T07:18:56.420Z,10.10
2017-11-24T07:21:22.668Z,10.10
2017-11-24T07:23:48.956Z,10.10
2017-11-24T07:26:15.195Z,10.20
2017-11-24T07:28:42.256Z,10.10
2017-11-24T07:31:08.508Z,10.10
2017-11-24T07:33:34.715Z,10.10
2017-11-24T07:36:00.979Z,10.10
2017-11-24T07:38:34.154Z,10.20
2017-11-24T07:41:00.475Z,10.20
2017-11-24T07:43:26.704Z,10.30
2017-11-24T07:45:52.956Z,10.30
2017-11-24T07:48:19.238Z,10.40
2017-11-24T07:50:45.574Z,10.40
2017-11-24T07:53:11.857Z,10.50
2017-11-24T07:55:38.360Z,10.50
2017-11-24T07:58:04.684Z,10.50
2017-11-24T08:00:30.999Z,10.50
2017-11-24T08:02:57.298Z,10.40
2017-11-24T08:05:23.550Z,10.50
2017-11-24T08:07:50.551Z,10.60
2017-11-24T08:10:16.810Z,10.60
2017-11-24T08:12:43.110Z,10.70
2017-11-24T08:15:09.395Z,10.70
2017-11-24T08:17:35.656Z,10.80
2017-11-24T08:20:01.945Z,10.90
2017-11-24T08:22:28.955Z,11.00
2017-11-24T08:24:55.232Z,11.00
2017-11-24T08:27:21.513Z,11.10
2017-11-24T08:29:47.818Z,11.10
2017-11-24T08:32:14.595Z,11.10
2017-11-24T08:34:40.918Z,11.10
2017-11-24T08:37:07.148Z,11.10
2017-11-24T08:39:34.139Z,11.20
2017-11-24T08:42:00.383Z,11.20
2017-11-24T08:44:26.627Z,11.30
2017-11-24T08:46:59.188Z,11.30
2017-11-24T08:49:32.862Z,11.40
2017-11-24T08:51:59.231Z,11.40
2017-11-24T08:54:25.516Z,11.40
2017-11-24T08:56:52.590Z,11.40
2017-11-24T08:59:18.870Z,11.40
2017-11-24T09:01:45.187Z,11.40
2017-11-24T09:04:11.548Z,11.50
2017-11-24T09:06:37.860Z,11.50
2017-11-24T09:09:04.852Z,11.50
2017-11-24T09:11:31.107Z,11.50
2017-11-24T09:13:58.664Z,11.60
2017-11-24T09:16:24.961Z,11.70
2017-11-24T09:18:51.255Z,11.70
2017-11-24T09:21:17.630Z,11.70
2017-11-24T09:23:44.745Z,11.90
2017-11-24T09:26:11.011Z,11.90
2017-11-24T09:28:37.360Z,12.00
2017-11-24T09:31:03.653Z,12.10
2017-11-24T09:33:29.933Z,12.20
2017-11-24T09:35:56.321Z,12.30
2017-11-24T09:38:22.669Z,12.40
2017-11-24T09:40:49.002Z,12.50
2017-11-24T09:43:15.266Z,12.50
2017-11-24T09:45:41.559Z,12.50
2017-11-24T09:48:07.884Z,12.60
2017-11-24T09:50:34.181Z,12.60
2017-11-24T09:53:01.183Z,12.70
2017-11-24T09:55:27.466Z,12.70
2017-11-24T09:57:53.727Z,12.80
2017-11-24T10:00:20.895Z,12.90
2017-11-24T10:02:47.137Z,13.10
2017-11-24T10:05:13.472Z,13.20
2017-11-24T10:07:40.481Z,13.40
2017-11-24T10:10:06.824Z,13.30
2017-11-24T10:12:34.123Z,13.30
2017-11-24T10:15:01.164Z,13.20
2017-11-24T10:17:27.414Z,13.20
2017-11-24T10:19:53.696Z,13.20
2017-11-24T10:22:27.578Z,13.20
2017-11-24T10:24:53.912Z,13.20
2017-11-24T10:27:20.123Z,13.20
2017-11-24T10:29:46.366Z,13.20
2017-11-24T10:32:20.621Z,13.40
2017-11-24T10:34:47.621Z,13.90
2017-11-24T10:37:13.907Z,13.80
2017-11-24T10:39:40.949Z,13.60
2017-11-24T10:42:07.995Z,13.60
2017-11-24T10:44:35.067Z,13.60
2017-11-24T10:47:01.385Z,13.60
2017-11-24T10:49:27.783Z,13.70
2017-11-24T10:51:54.826Z,13.90
2017-11-24T10:54:21.339Z,13.90
2017-11-24T10:56:47.615Z,14.10
2017-11-24T10:59:13.936Z,14.60
2017-11-24T11:01:40.971Z,14.90
2017-11-24T11:04:08.143Z,14.70
2017-11-24T11:06:35.176Z,14.40
2017-11-24T11:09:02.201Z,14.30
2017-11-24T11:11:29.265Z,14.20
2017-11-24T11:13:56.260Z,14.20
2017-11-24T11:16:22.526Z,14.20
2017-11-24T11:18:48.873Z,14.10
2017-11-24T11:21:15.884Z,14.00
2017-11-24T11:23:42.174Z,14.00
2017-11-24T11:26:08.441Z,14.10
2017-11-24T11:28:34.682Z,14.10
2017-11-24T11:31:01.171Z,14.10
2017-11-24T11:33:27.497Z,14.10
2017-11-24T11:35:53.790Z,14.00
2017-11-24T11:38:20.081Z,14.10
2017-11-24T11:40:47.129Z,14.00
2017-11-24T11:43:13.369Z,14.00
2017-11-24T11:45:39.655Z,14.00
2017-11-24T11:48:05.926Z,14.00
2017-11-24T11:50:39.295Z,14.10
2017-11-24T11:53:05.591Z,14.10
2017-11-24T11:55:32.651Z,14.20
2017-11-24T11:57:58.930Z,14.20
2017-11-24T12:00:25.295Z,14.20
2017-11-24T12:02:51.655Z,14.20
2017-11-24T12:05:17.871Z,14.10
2017-11-24T12:07:44.201Z,14.10
2017-11-24T12:10:10.636Z,14.10
2017-11-24T12:12:36.938Z,14.10
2017-11-24T12:15:03.240Z,14.10
2017-11-24T12:17:29.505Z,14.10
2017-11-24T12:19:56.479Z,14.00
2017-11-24T12:22:22.771Z,14.00
2017-11-24T12:24:50.582Z,14.00
2017-11-24T12:27:16.839Z,14.00
2017-11-24T12:29:43.074Z,14.00
2017-11-24T12:32:09.352Z,14.00
2017-11-24T12:34:35.679Z,14.00
2017-11-24T12:37:01.951Z,14.00
2017-11-24T12:39:28.301Z,14.00
2017-11-24T12:41:54.548Z,13.80
2017-11-24T12:44:21.578Z,12.70
2017-11-24T12:46:48.596Z,12.30
2017-11-24T12:49:14.857Z,12.20
2017-11-24T12:51:42.647Z,11.70
2017-11-24T12:54:16.666Z,11.50
2017-11-24T12:56:42.968Z,11.40
2017-11-24T12:59:09.270Z,11.40
2017-11-24T13:01:36.567Z,11.20
2017-11-24T13:04:10.009Z,11.10
2017-11-24T13:06:37.455Z,11.00
2017-11-24T13:09:03.832Z,10.90
2017-11-24T13:11:30.197Z,10.90
2017-11-24T13:13:56.631Z,10.80
2017-11-24T13:16:22.924Z,10.80
2017-11-24T13:18:50.048Z,10.70
2017-11-24T13:21:17.260Z,10.70
2017-11-24T13:23:43.621Z,10.70
2017-11-24T13:26:10.147Z,10.70
2017-11-24T13:28:36.465Z,10.70
2017-11-24T13:31:03.696Z,10.60
2017-11-24T13:33:30.129Z,10.60
2017-11-24T13:35:56.635Z,10.60
2017-11-24T13:38:23.088Z,10.50
2017-11-24T13:40:49.444Z,10.50
2017-11-24T13:43:16.630Z,10.40
2017-11-24T13:45:42.983Z,10.40
2017-11-24T13:48:10.424Z,10.30
2017-11-24T13:50:36.814Z,10.30
2017-11-24T13:53:06.336Z,10.30
2017-11-24T13:55:33.011Z,10.10
2017-11-24T13:58:05.779Z,10.10
2017-11-24T14:00:32.166Z,10.00
2017-11-24T14:03:05.816Z,9.80
2017-11-24T14:05:36.780Z,9.70
2017-11-24T14:08:03.441Z,9.70
2017-11-24T14:10:29.874Z,9.60
2017-11-24T14:12:56.243Z,9.60
2017-11-24T14:15:22.758Z,9.50
2017-11-24T14:17:49.291Z,9.50
2017-11-24T14:20:15.744Z,9.40
2017-11-24T14:22:42.763Z,9.30
2017-11-24T14:25:12.419Z,9.30
2017-11-24T14:27:41.726Z,9.30
2017-11-24T14:30:08.364Z,9.20
2017-11-24T14:32:35.763Z,9.00
2017-11-24T14:35:09.091Z,9.00
2017-11-24T14:37:36.706Z,8.90
2017-11-24T14:40:03.032Z,8.80
2017-11-24T14:42:31.390Z,8.80
2017-11-24T14:44:58.384Z,8.70
2017-11-24T14:47:25.515Z,8.70
2017-11-24T14:49:52.842Z,8.60
2017-11-24T14:52:21.622Z,8.70
2017-11-24T14:54:49.195Z,8.70
2017-11-24T14:57:16.213Z,8.70
2017-11-24T14:59:42.584Z,8.60
2017-11-24T15:02:09.042Z,8.60
2017-11-24T15:04:35.571Z,8.60
2017-11-24T15:07:01.925Z,8.60
2017-11-24T15:09:29.903Z,8.50
2017-11-24T15:11:56.342Z,8.50
2017-11-24T15:14:23.387Z,8.40
2017-11-24T15:16:49.958Z,8.40
2017-11-24T15:19:16.360Z,8.40
2017-11-24T15:21:44.480Z,8.40
2017-11-24T15:24:10.826Z,8.40
2017-11-24T15:26:37.308Z,8.40
2017-11-24T15:29:04.408Z,8.30
2017-11-24T15:31:30.899Z,8.30
2017-11-24T15:33:57.239Z,8.30
2017-11-24T15:36:23.725Z,8.30
2017-11-24T15:38:50.724Z,8.30
2017-11-24T15:41:17.019Z,8.20
2017-11-24T15:43:43.396Z,8.20
2017-11-24T15:46:09.648Z,8.30
2017-11-24T15:48:36.123Z,8.10
2017-11-24T15:51:02.483Z,8.20
2017-11-24T15:53:29.587Z,8.20
2017-11-24T15:55:55.832Z,8.20
2017-11-24T15:58:23.063Z,8.20
2017-11-24T16:00:49.495Z,8.10
2017-11-24T16:03:15.771Z,8.10
2017-11-24T16:05:42.115Z,8.10
2017-11-24T16:08:08.424Z,8.10
2017-11-24T16:10:34.733Z,8.00
2017-11-24T16:13:01.783Z,8.00
2017-11-24T16:15:28.868Z,8.00
2017-11-24T16:17:55.167Z,7.90
2017-11-24T16:20:21.560Z,7.90
2017-11-24T16:22:47.862Z,7.90
2017-11-24T16:25:14.118Z,7.90
2017-11-24T16:27:40.423Z,7.80
2017-11-24T16:30:06.751Z,7.90
2017-11-24T16:32:33.064Z,7.80
2017-11-24T16:34:59.395Z,7.80
2017-11-24T16:37:25.649Z,7.80
2017-11-24T16:39:52.072Z,7.80
2017-11-24T16:42:18.820Z,7.80
2017-11-24T16:44:45.127Z,7.80
2017-11-24T16:47:11.488Z,7.80
2017-11-24T16:49:37.794Z,7.80
2017-11-24T16:52:04.172Z,7.70
2017-11-24T16:54:30.482Z,7.70
2017-11-24T16:56:56.745Z,7.70
2017-11-24T16:59:23.965Z,7.70
2017-11-24T17:01:50.418Z,7.60
2017-11-24T17:04:19.028Z,7.70
2017-11-24T17:06:45.446Z,7.60
2017-11-24T17:09:12.802Z,7.70
2017-11-24T17:11:39.155Z,7.70
2017-11-24T17:14:05.544Z,7.70
2017-11-24T17:16:32.126Z,7.70
2017-11-24T17:18:58.735Z,7.60
2017-11-24T17:21:26.660Z,7.60
2017-11-24T17:23:52.975Z,7.60
2017-11-24T17:26:19.284Z,7.60
2017-11-24T17:28:45.867Z,7.60
2017-11-24T17:31:12.258Z,7.60
2017-11-24T17:33:38.888Z,7.60
2017-11-24T17:36:05.229Z,7.60
2017-11-24T17:38:31.620Z,7.60
2017-11-24T17:40:58.012Z,7.60
2017-11-24T17:43:24.328Z,7.50
2017-11-24T17:45:50.904Z,7.50
2017-11-24T17:48:17.204Z,7.50
2017-11-24T17:50:43.528Z,7.50
2017-11-24T17:53:10.102Z,7.50
2017-11-24T17:55:37.543Z,7.50
2017-11-24T17:58:04.107Z,7.40
2017-11-24T18:00:30.727Z,7.40
2017-11-24T18:02:57.040Z,7.30
2017-11-24T18:05:25.198Z,7.30
2017-11-24T18:07:51.561Z,7.30
2017-11-24T18:10:18.780Z,7.20
2017-11-24T18:12:45.064Z,7.10
2017-11-24T18:15:12.297Z,7.20
2017-11-24T18:17:39.516Z,7.20
2017-11-24T18:20:06.853Z,7.20
2017-11-24T18:22:43.494Z,7.20
2017-11-24T18:25:12.108Z,7.20
2017-11-24T18:27:38.591Z,7.20
2017-11-24T18:30:05.022Z,7.20
2017-11-24T18:32:31.612Z,7.20
2017-11-24T18:34:57.955Z,7.20
2017-11-24T18:37:26.077Z,7.20
2017-11-24T18:39:53.179Z,7.30
2017-11-24T18:42:22.418Z,7.30
2017-11-24T18:44:53.163Z,7.30
2017-11-24T18:47:20.439Z,7.30
2017-11-24T18:49:46.975Z,7.30
2017-11-24T18:52:14.061Z,7.20
2017-11-24T18:54:40.667Z,7.20
2017-11-24T18:57:08.091Z,7.20
2017-11-24T18:59:38.535Z,7.20
2017-11-24T19:02:07.344Z,7.20
2017-11-24T19:04:33.813Z,7.20
2017-11-24T19:07:01.084Z,7.20
2017-11-24T19:09:28.493Z,7.20
2017-11-24T19:11:54.949Z,7.20
2017-11-24T19:14:24.071Z,7.30
2017-11-24T19:16:50.414Z,7.20
2017-11-24T19:19:18.045Z,7.20
2017-11-24T19:21:45.599Z,7.20
2017-11-24T19:24:11.975Z,7.20
2017-11-24T19:26:38.273Z,7.20
2017-11-24T19:29:05.285Z,7.20
2017-11-24T19:31:31.586Z,7.20
2017-11-24T19:33:57.852Z,7.20
2017-11-24T19:36:24.141Z,7.20
2017-11-24T19:38:50.416Z,7.20
2017-11-24T19:41:16.828Z,7.30
2017-11-24T19:43:47.124Z,7.20
2017-11-24T19:46:13.455Z,7.20
2017-11-24T19:48:40.421Z,7.20
2017-11-24T19:51:15.078Z,7.20
2017-11-24T19:53:45.547Z,7.20
2017-11-24T19:56:14.177Z,7.20
2017-11-24T19:58:43.647Z,7.30
2017-11-24T20:01:09.980Z,7.30
2017-11-24T20:03:36.325Z,7.30
2017-11-24T20:06:05.194Z,7.30
2017-11-24T20:08:36.822Z,7.30
2017-11-24T20:11:03.515Z,7.30
2017-11-24T20:13:29.804Z,7.40
2017-11-24T20:15:56.184Z,7.40
2017-11-24T20:20:55.393Z,7.40
2017-11-24T20:23:21.815Z,7.40
2017-11-24T20:25:48.160Z,7.40
2017-11-24T20:28:16.497Z,7.40
2017-11-24T20:33:26.184Z,7.30
2017-11-24T20:36:03.048Z,7.30
2017-11-24T20:38:31.312Z,7.30
2017-11-24T20:41:03.671Z,7.30
2017-11-24T20:43:30.015Z,7.30
2017-11-24T20:45:56.476Z,7.30
2017-11-24T20:48:23.220Z,7.30
2017-11-24T20:50:57.977Z,7.30
2017-11-24T20:53:24.570Z,7.30
2017-11-24T20:55:50.978Z,7.30
2017-11-24T21:00:53.934Z,7.10
2017-11-24T21:03:29.471Z,7.10
2017-11-24T21:05:56.161Z,7.00
2017-11-24T21:08:22.548Z,7.00
2017-11-24T21:10:49.224Z,7.00
2017-11-24T21:13:15.619Z,6.90
2017-11-24T21:15:48.274Z,6.90
2017-11-24T21:18:16.009Z,6.80
2017-11-24T21:20:42.328Z,6.80
2017-11-24T21:23:08.860Z,6.80
2017-11-24T21:25:35.301Z,6.80
2017-11-24T21:28:01.629Z,6.80
2017-11-24T21:30:29.207Z,6.80
2017-11-24T21:32:56.295Z,6.80
2017-11-24T21:35:22.691Z,6.80
2017-11-24T21:37:48.998Z,6.80
2017-11-24T21:40:15.285Z,6.80
2017-11-24T21:42:42.339Z,6.80
2017-11-24T21:45:09.334Z,6.80
2017-11-24T21:47:35.715Z,6.70
2017-11-24T21:50:02.089Z,6.80
2017-11-24T21:52:29.134Z,6.70
2017-11-24T21:54:56.300Z,6.70
2017-11-24T21:57:24.793Z,6.70
2017-11-24T21:59:51.047Z,6.70
2017-11-24T22:02:18.772Z,6.70
2017-11-24T22:04:45.015Z,6.70
2017-11-24T22:07:14.676Z,6.70
2017-11-24T22:09:40.918Z,6.70
2017-11-24T22:12:07.201Z,6.70
2017-11-24T22:14:33.440Z,6.70
2017-11-24T22:17:00.475Z,6.70
2017-11-24T22:19:27.682Z,6.70
2017-11-24T22:21:53.940Z,6.70
2017-11-24T22:24:20.442Z,6.60
2017-11-24T22:26:46.792Z,6.70
2017-11-24T22:29:13.073Z,6.70
2017-11-24T22:31:39.359Z,6.60
2017-11-24T22:34:05.860Z,6.60
2017-11-24T22:36:32.147Z,6.60
2017-11-24T22:38:58.539Z,6.60
2017-11-24T22:41:24.801Z,6.50
2017-11-24T22:43:51.114Z,6.60
2017-11-24T22:46:18.007Z,6.50
2017-11-24T22:48:44.270Z,6.50
2017-11-24T22:51:10.592Z,6.50
2017-11-24T22:53:36.860Z,6.40
2017-11-24T22:56:03.164Z,6.40
2017-11-24T22:58:29.448Z,6.50
2017-11-24T23:00:55.955Z,6.40
2017-11-24T23:03:22.320Z,6.40
2017-11-24T23:05:48.553Z,6.40
2017-11-24T23:08:14.813Z,6.40
2017-11-24T23:10:41.291Z,6.40
2017-11-24T23:13:08.299Z,6.40
2017-11-24T23:15:34.550Z,6.40
2017-11-24T23:18:00.787Z,6.40
2017-11-24T23:20:27.086Z,6.50
2017-11-24T23:22:53.339Z,6.50
2017-11-24T23:25:19.579Z,6.50
2017-11-24T23:27:46.680Z,6.50
2017-11-24T23:30:12.979Z,6.50
2017-11-24T23:32:39.350Z,6.40
2017-11-24T23:35:05.636Z,6.50
2017-11-24T23:37:31.883Z,6.50
2017-11-24T23:39:58.108Z,6.50
2017-11-24T23:42:24.354Z,6.50
2017-11-24T23:44:50.692Z,6.40
2017-11-24T23:47:19.797Z,6.50
2017-11-24T23:49:46.084Z,6.50
2017-11-24T23:52:12.330Z,6.50
2017-11-24T23:54:38.617Z,6.50
2017-11-24T23:57:05.603Z,6.40
2017-11-24T23:59:31.897Z,6.40
